LFBH

La Rochelle-Île de Ré Airport

Airport
ICAO code
LFBH
IATA Code
LRH
Summary
ICAO Region
EUR
ICAO Territory
Location

, Poitou-Charentes

Serving
La Rochelle
Elevation
74 ft
Coordinates
46° 10' 45" N , 1° 11' 43" W
Metar
Observation
LFBH 280530Z AUTO 26007KT 9999 FEW038 OVC230 11/08 Q1015 TEMPO VRB20G40KT 2000 TSRAGS SCT010 BKN020CB
Station
La Rochelle
Date/Time
2022-11-28 05:30:00
Wind direction
260°
Wind speed
07 kts
Lowest cloud amount
few clouds
Temperature
11°C
Dew point
8°C
Humidity
81%
QNH
1015 hPa
Weather condition
n/a

Runways

Designator Length Width Surface Rops
10/28 2255 45 ASP No/No

Airport map

Aerial View

SKYbrary Partners:

Safety knowledge contributed by: